Time;durP1;ratioP1;P1;durP2;ratioP2;P2;SDS_P1;SDS_P2;PMS_P1;PMS_P2;Temp;Humidity;BMP_temperature;BMP_pressure;BME280_temperature;BME280_humidity;BME280_pressure;Samples;Min_cycle;Max_cycle;Signal;HPM_P1;HPM_P2
2023/09/19 00:02:08;;;;;;;2.60;0.80;;;;;;;20.98;61.34;97073.34;5036818;28;20436;-72
2023/09/19 00:04:34;;;;;;;1.67;1.10;;;;;;;21.04;61.32;97084.97;5023496;28;20509;-71
2023/09/19 00:07:01;;;;;;;2.13;1.47;;;;;;;21.05;61.60;97083.09;5031913;28;20433;-72
2023/09/19 00:09:27;;;;;;;3.50;1.50;;;;;;;21.00;61.31;97092.59;5035024;28;20194;-71
2023/09/19 00:11:53;;;;;;;3.43;1.20;;;;;;;21.08;61.37;97090.66;5009247;28;20876;-71
2023/09/19 00:14:18;;;;;;;5.00;1.30;;;;;;;20.99;61.60;97098.94;5038521;28;20214;-71
2023/09/19 00:16:44;;;;;;;4.07;1.07;;;;;;;21.02;61.77;97101.19;5028862;28;20188;-71
2023/09/19 00:19:09;;;;;;;1.40;0.93;;;;;;;20.97;61.75;97106.34;5038630;28;20190;-70
2023/09/19 00:21:37;;;;;;;1.57;0.90;;;;;;;20.90;61.83;97094.13;5015337;28;20271;-71
2023/09/19 00:24:06;;;;;;;2.60;1.40;;;;;;;20.95;61.94;97094.28;5040478;28;20199;-71
2023/09/19 00:26:34;;;;;;;1.67;1.17;;;;;;;20.99;61.64;97096.28;5026819;28;20438;-71
2023/09/19 00:29:08;;;;;;;1.10;0.90;;;;;;;21.01;61.71;97088.88;5030672;28;20474;-70
2023/09/19 00:31:34;;;;;;;3.53;1.20;;;;;;;21.06;61.72;97093.53;5038615;28;20468;-70
2023/09/19 00:34:06;;;;;;;1.70;1.00;;;;;;;21.03;61.76;97088.66;5038617;28;20821;-71
2023/09/19 00:36:33;;;;;;;2.30;1.33;;;;;;;20.99;61.76;97106.09;5043462;28;20183;-70
2023/09/19 00:38:59;;;;;;;1.90;1.10;;;;;;;21.08;61.21;97095.97;5029384;28;20463;-71
2023/09/19 00:41:24;;;;;;;2.60;1.00;;;;;;;21.11;61.40;97101.66;5032835;28;20425;-71
2023/09/19 00:43:50;;;;;;;2.53;1.00;;;;;;;21.18;60.97;97106.91;5030156;28;20231;-71
2023/09/19 00:46:18;;;;;;;1.53;0.90;;;;;;;21.23;60.87;97112.41;5033807;28;20195;-71
2023/09/19 00:48:44;;;;;;;4.60;1.30;;;;;;;21.21;61.08;97116.34;5036107;28;20673;-71
2023/09/19 00:51:10;;;;;;;1.67;0.97;;;;;;;21.19;60.62;97119.22;5034456;28;20511;-73
2023/09/19 00:53:35;;;;;;;1.87;0.80;;;;;;;21.23;61.08;97116.94;5021863;28;20234;-72
2023/09/19 00:56:03;;;;;;;3.07;1.20;;;;;;;21.18;60.87;97125.56;5027757;28;20676;-70
2023/09/19 00:58:33;;;;;;;3.80;1.10;;;;;;;21.15;60.98;97128.69;5035021;28;20210;-71
2023/09/19 01:00:59;;;;;;;1.90;0.83;;;;;;;21.16;60.65;97133.78;4969387;28;1099853;-72
2023/09/19 01:03:24;;;;;;;2.50;1.00;;;;;;;21.15;60.55;97131.38;5035482;28;20560;-71
2023/09/19 01:05:49;;;;;;;1.10;0.90;;;;;;;21.10;60.51;97129.38;5031093;28;20188;-71
2023/09/19 01:08:15;;;;;;;1.07;0.80;;;;;;;21.16;60.96;97135.66;5039452;28;20223;-71
2023/09/19 01:11:04;;;;;;;2.30;1.00;;;;;;;21.08;60.87;97126.09;5041050;28;20541;-71
2023/09/19 01:13:37;;;;;;;4.07;1.30;;;;;;;21.13;60.55;97128.09;5019334;28;20254;-71
2023/09/19 01:16:26;;;;;;;2.63;1.03;;;;;;;21.09;60.55;97121.59;4992840;28;20798;-70
2023/09/19 01:19:20;;;;;;;1.57;0.87;;;;;;;20.97;60.78;97119.66;5039581;28;20924;-71
2023/09/19 01:21:54;;;;;;;5.13;1.00;;;;;;;21.09;60.32;97129.56;5034894;28;20965;-71
2023/09/19 01:24:42;;;;;;;1.70;0.97;;;;;;;21.01;60.07;97125.34;5022522;28;20438;-71
2023/09/19 01:27:34;;;;;;;1.20;0.90;;;;;;;21.07;59.95;97126.31;5027271;28;21149;-71
2023/09/19 01:30:08;;;;;;;4.73;1.10;;;;;;;21.11;59.56;97138.16;5032216;28;20434;-71
2023/09/19 01:32:33;;;;;;;4.40;1.00;;;;;;;21.06;59.71;97133.50;5011839;28;20520;-71
2023/09/19 01:35:04;;;;;;;2.33;1.10;;;;;;;21.09;59.53;97145.56;5031372;28;20450;-71
2023/09/19 01:37:31;;;;;;;1.37;1.20;;;;;;;21.12;59.43;97137.13;5030034;28;20192;-71
2023/09/19 01:40:16;;;;;;;1.40;0.90;;;;;;;21.05;59.24;97139.03;5041558;28;20513;-72
2023/09/19 01:43:03;;;;;;;1.30;1.00;;;;;;;21.02;59.35;97148.28;5010554;28;20430;-70
2023/09/19 01:45:54;;;;;;;0.97;0.80;;;;;;;21.05;59.19;97155.03;5031106;28;20506;-73
2023/09/19 01:48:38;;;;;;;1.63;0.70;;;;;;;21.07;59.15;97153.78;5034022;28;20463;-72
2023/09/19 01:51:10;;;;;;;2.70;0.87;;;;;;;21.06;58.80;97146.81;5032059;28;20458;-69
2023/09/19 01:53:45;;;;;;;1.37;0.70;;;;;;;21.01;59.10;97155.47;5044432;28;20499;-71
2023/09/19 01:56:16;;;;;;;1.10;0.87;;;;;;;20.99;58.97;97164.72;5014898;28;21010;-71
2023/09/19 01:58:46;;;;;;;1.10;0.70;;;;;;;21.02;59.29;97154.44;5013674;28;20434;-69
2023/09/19 02:01:18;;;;;;;2.03;0.90;;;;;;;21.08;58.88;97163.41;5024190;28;21129;-71
2023/09/19 02:03:44;;;;;;;1.77;0.87;;;;;;;21.06;58.85;97164.66;5031579;28;20464;-73
2023/09/19 02:06:17;;;;;;;2.07;0.80;;;;;;;21.09;58.83;97165.03;5005260;28;20439;-72
2023/09/19 02:08:44;;;;;;;1.37;1.00;;;;;;;21.15;58.84;97171.34;5033780;28;20452;-70
2023/09/19 02:11:13;;;;;;;1.40;0.90;;;;;;;21.07;58.68;97160.94;5039746;28;20469;-71
2023/09/19 02:13:38;;;;;;;1.50;0.90;;;;;;;20.95;59.27;97174.19;5019705;28;20454;-71
2023/09/19 02:19:26;;;;;;;2.33;0.87;;;;;;;20.97;59.27;97177.47;5020859;28;20243;-72
2023/09/19 02:21:52;;;;;;;3.67;0.87;;;;;;;20.94;59.21;97184.03;5020643;28;20430;-71
2023/09/19 02:24:19;;;;;;;2.57;0.90;;;;;;;20.91;59.00;97176.50;5035499;28;20203;-70
2023/09/19 02:26:44;;;;;;;2.13;0.90;;;;;;;20.87;59.23;97184.09;5028222;28;20518;-72
2023/09/19 02:29:12;;;;;;;2.57;0.90;;;;;;;20.74;59.68;97178.03;5023368;28;20503;-70
2023/09/19 02:31:38;;;;;;;1.77;0.87;;;;;;;20.76;59.85;97182.13;5021772;28;20585;-71
2023/09/19 02:34:05;;;;;;;2.13;0.90;;;;;;;20.66;60.03;97185.28;5037124;28;20548;-70
2023/09/19 02:36:30;;;;;;;2.80;0.90;;;;;;;20.59;60.19;97181.84;5029802;28;20430;-71
2023/09/19 02:38:56;;;;;;;2.57;1.20;;;;;;;20.57;60.24;97178.56;5027521;28;20430;-71
2023/09/19 02:41:21;;;;;;;1.87;0.77;;;;;;;20.66;60.25;97185.28;5027240;28;20668;-71
2023/09/19 02:43:47;;;;;;;1.20;0.97;;;;;;;20.65;60.20;97186.31;5029959;28;20282;-73
2023/09/19 02:46:12;;;;;;;7.77;0.90;;;;;;;20.63;60.23;97180.38;5038039;28;20187;-72
2023/09/19 02:48:38;;;;;;;1.20;1.07;;;;;;;20.68;59.76;97183.19;5030014;28;20188;-71
2023/09/19 02:51:04;;;;;;;1.93;1.00;;;;;;;20.74;59.74;97191.34;5028903;28;20180;-71
2023/09/19 02:53:31;;;;;;;1.67;0.93;;;;;;;20.68;59.80;97196.50;5039342;28;20202;-71
2023/09/19 02:55:57;;;;;;;1.50;1.00;;;;;;;20.69;59.70;97195.47;5029472;28;20517;-71
2023/09/19 02:58:24;;;;;;;1.93;1.00;;;;;;;20.75;59.88;97198.34;5034927;28;20946;-71
2023/09/19 03:00:51;;;;;;;2.40;0.97;;;;;;;20.75;59.90;97201.81;5039219;28;20671;-71
2023/09/19 03:03:17;;;;;;;2.73;0.80;;;;;;;20.83;59.63;97204.22;5035579;28;20456;-71
2023/09/19 03:05:46;;;;;;;1.53;0.87;;;;;;;20.86;59.60;97216.28;5033510;28;20426;-72
2023/09/19 03:08:16;;;;;;;3.80;0.93;;;;;;;20.88;59.84;97208.88;5024633;28;20458;-70
2023/09/19 03:10:42;;;;;;;1.20;0.87;;;;;;;20.92;59.66;97210.06;5039195;28;21115;-71
2023/09/19 03:13:09;;;;;;;2.50;0.93;;;;;;;20.94;59.92;97210.66;5031730;28;20465;-71
2023/09/19 03:15:38;;;;;;;2.13;1.10;;;;;;;20.98;59.92;97213.72;5041418;28;20187;-72
2023/09/19 03:18:04;;;;;;;1.47;0.90;;;;;;;20.96;59.84;97208.59;5038055;28;20489;-71
2023/09/19 03:20:30;;;;;;;1.00;0.70;;;;;;;20.98;59.89;97205.72;5031265;28;20449;-71
2023/09/19 03:22:57;;;;;;;0.97;0.70;;;;;;;20.91;59.96;97200.47;5032414;28;20426;-71
2023/09/19 03:25:23;;;;;;;1.73;1.30;;;;;;;20.91;60.16;97205.78;5030858;28;20536;-71
2023/09/19 03:27:48;;;;;;;3.23;1.20;;;;;;;20.94;60.29;97202.66;5041707;28;20429;-72
2023/09/19 03:30:14;;;;;;;1.57;0.90;;;;;;;20.97;59.69;97207.56;5012684;28;20446;-71
2023/09/19 03:32:47;;;;;;;1.13;1.03;;;;;;;20.95;60.17;97193.63;5023677;28;20278;-71
2023/09/19 03:35:14;;;;;;;2.67;1.03;;;;;;;20.98;59.80;97209.19;5031927;28;20202;-71
2023/09/19 03:37:42;;;;;;;4.20;1.00;;;;;;;20.91;60.04;97199.63;5002071;28;20954;-72
2023/09/19 03:40:12;;;;;;;4.17;1.13;;;;;;;20.91;60.17;97200.47;5021957;28;20570;-71
2023/09/19 03:42:41;;;;;;;1.40;1.10;;;;;;;20.82;60.19;97196.41;5027168;28;20485;-71
2023/09/19 03:45:11;;;;;;;2.40;0.93;;;;;;;20.86;60.26;97193.09;5029209;28;20446;-71
2023/09/19 03:47:37;;;;;;;2.60;1.40;;;;;;;20.90;60.23;97198.00;5030808;28;20434;-71
2023/09/19 03:50:03;;;;;;;2.20;1.00;;;;;;;20.85;59.93;97196.81;5036770;28;20418;-73
2023/09/19 03:52:28;;;;;;;3.60;1.13;;;;;;;20.88;60.05;97200.88;5029261;28;20484;-71
2023/09/19 03:54:53;;;;;;;1.07;0.90;;;;;;;20.88;60.30;97198.22;5027486;28;20250;-71
2023/09/19 03:57:20;;;;;;;2.10;1.10;;;;;;;20.92;60.27;97204.72;5032286;28;20218;-72
2023/09/19 03:59:47;;;;;;;1.50;1.00;;;;;;;20.81;60.46;97189.47;5028939;28;20555;-69
2023/09/19 04:02:21;;;;;;;2.17;1.10;;;;;;;20.81;60.42;97192.13;5029210;28;20442;-69
2023/09/19 04:04:50;;;;;;;2.43;1.27;;;;;;;20.84;60.31;97194.34;5042711;28;20464;-71
2023/09/19 04:07:17;;;;;;;2.00;1.10;;;;;;;20.84;60.59;97205.00;5014644;28;20458;-71
2023/09/19 04:09:42;;;;;;;1.30;1.10;;;;;;;20.84;60.46;97210.34;5028735;28;20437;-71
2023/09/19 04:12:11;;;;;;;3.80;1.10;;;;;;;20.78;60.82;97200.56;5035042;28;20451;-70
2023/09/19 04:14:36;;;;;;;4.93;1.23;;;;;;;20.75;60.66;97203.66;5013481;28;20215;-71
2023/09/19 04:17:03;;;;;;;2.73;1.27;;;;;;;20.74;60.89;97200.13;5028926;28;20430;-71
2023/09/19 04:19:28;;;;;;;2.03;1.10;;;;;;;20.59;61.65;97208.47;5029114;28;20273;-71
2023/09/19 04:21:54;;;;;;;2.23;1.20;;;;;;;20.69;61.29;97214.09;5012144;28;20953;-72
2023/09/19 04:24:19;;;;;;;1.87;1.20;;;;;;;20.64;61.83;97213.13;5035868;28;20299;-70
2023/09/19 04:26:45;;;;;;;1.73;1.20;;;;;;;20.56;61.69;97209.72;5034912;28;20183;-71
2023/09/19 04:29:11;;;;;;;2.50;1.10;;;;;;;20.58;62.08;97216.69;5041216;28;20194;-71
2023/09/19 04:31:37;;;;;;;1.47;1.20;;;;;;;20.60;61.94;97215.41;5018744;28;20212;-72
2023/09/19 04:34:03;;;;;;;2.97;1.20;;;;;;;20.53;62.02;97218.13;5035740;28;20211;-71
2023/09/19 04:36:29;;;;;;;1.40;1.13;;;;;;;20.53;62.61;97218.13;5037516;28;20456;-71
2023/09/19 04:38:55;;;;;;;2.03;1.27;;;;;;;20.57;62.15;97221.16;5043636;28;20194;-71
2023/09/19 04:41:22;;;;;;;3.60;1.43;;;;;;;20.58;62.37;97224.66;5035069;28;20429;-71
2023/09/19 04:43:49;;;;;;;1.63;1.53;;;;;;;20.60;61.97;97218.06;5039990;28;20651;-71
2023/09/19 04:46:15;;;;;;;3.33;1.30;;;;;;;20.65;62.14;97220.91;5035617;28;20447;-72
2023/09/19 04:48:41;;;;;;;3.13;1.20;;;;;;;20.70;62.29;97230.91;5002856;28;20958;-71
2023/09/19 04:51:06;;;;;;;3.00;1.10;;;;;;;20.64;62.12;97224.63;5041553;28;20678;-71
2023/09/19 04:53:32;;;;;;;2.90;1.30;;;;;;;20.60;62.22;97231.38;5018202;28;20466;-71
2023/09/19 04:55:58;;;;;;;1.30;1.13;;;;;;;20.66;62.11;97241.19;5031261;28;20188;-72
2023/09/19 04:58:23;;;;;;;2.67;1.50;;;;;;;20.71;62.29;97243.19;5039105;28;20260;-71
2023/09/19 05:00:51;;;;;;;3.73;1.30;;;;;;;20.74;61.95;97255.25;5039046;28;20214;-71
2023/09/19 05:03:16;;;;;;;2.53;1.60;;;;;;;20.75;61.98;97252.41;5011809;28;20559;-71
2023/09/19 05:05:42;;;;;;;1.37;1.23;;;;;;;20.78;62.42;97259.97;5043054;28;20421;-71
2023/09/19 05:08:09;;;;;;;2.20;1.13;;;;;;;20.77;63.00;97262.84;5038418;28;20927;-70
2023/09/19 05:10:37;;;;;;;2.60;1.37;;;;;;;20.81;63.15;97264.84;5041422;28;20252;-73
2023/09/19 05:13:04;;;;;;;3.47;1.20;;;;;;;20.78;63.38;97269.81;5028050;28;20466;-71
2023/09/19 05:15:30;;;;;;;2.60;1.37;;;;;;;20.80;63.55;97278.38;5036331;28;20513;-70
2023/09/19 05:17:55;;;;;;;2.30;1.20;;;;;;;20.78;63.45;97269.81;5038141;28;20588;-71
2023/09/19 05:20:29;;;;;;;1.67;1.30;;;;;;;20.76;63.87;97259.34;5036885;28;20206;-71
2023/09/19 05:22:58;;;;;;;2.00;1.50;;;;;;;20.77;64.21;97257.53;5033760;28;20649;-70
2023/09/19 05:25:24;;;;;;;2.57;1.40;;;;;;;20.76;64.40;97271.88;5038373;28;20418;-70
2023/09/19 05:27:53;;;;;;;3.10;1.30;;;;;;;20.70;64.40;97278.84;5031405;28;20462;-69
2023/09/19 05:30:20;;;;;;;1.73;1.50;;;;;;;20.71;64.10;97275.97;5032385;28;20593;-70
2023/09/19 05:32:45;;;;;;;1.87;1.40;;;;;;;20.66;64.52;97275.81;5029220;28;20486;-70
2023/09/19 05:35:13;;;;;;;1.70;1.23;;;;;;;20.67;64.35;97273.94;5035268;28;21308;-70
2023/09/19 05:37:39;;;;;;;2.70;1.40;;;;;;;20.66;64.51;97270.47;5027695;28;20628;-71
2023/09/19 05:40:11;;;;;;;2.87;1.20;;;;;;;20.63;64.37;97278.88;5030888;28;20418;-70
2023/09/19 05:42:39;;;;;;;2.57;1.30;;;;;;;20.58;64.87;97277.91;5040840;28;20175;-70
2023/09/19 05:45:06;;;;;;;3.30;1.57;;;;;;;20.61;64.75;97280.13;5036261;28;20517;-69
2023/09/19 05:47:32;;;;;;;3.03;1.20;;;;;;;20.62;64.72;97293.22;5043886;28;20429;-70
2023/09/19 05:49:57;;;;;;;2.70;1.30;;;;;;;20.67;64.24;97296.03;5042676;28;20514;-69
2023/09/19 05:52:23;;;;;;;3.30;1.10;;;;;;;20.72;64.72;97311.41;5043454;28;20455;-70
2023/09/19 05:54:49;;;;;;;4.20;1.60;;;;;;;20.78;64.53;97313.22;5037358;28;20235;-71
2023/09/19 05:57:15;;;;;;;3.77;1.50;;;;;;;20.78;64.93;97333.72;5029218;28;20186;-70
2023/09/19 05:59:42;;;;;;;5.67;1.83;;;;;;;20.76;64.97;97327.78;5029278;28;20493;-71
2023/09/19 06:02:09;;;;;;;2.40;1.40;;;;;;;20.74;64.80;97332.47;5028572;28;20199;-70
2023/09/19 06:04:35;;;;;;;1.80;1.10;;;;;;;20.70;64.42;97327.56;5023324;28;20522;-72
2023/09/19 06:07:00;;;;;;;3.63;0.97;;;;;;;20.69;64.33;97341.91;5043468;28;20813;-70
2023/09/19 06:09:27;;;;;;;1.73;1.00;;;;;;;20.68;64.51;97342.94;5022372;28;20200;-71
2023/09/19 06:11:55;;;;;;;2.27;1.37;;;;;;;20.65;64.16;97346.06;5033803;28;20227;-69
2023/09/19 06:14:20;;;;;;;1.53;1.17;;;;;;;20.57;64.18;97343.63;5040328;28;20457;-70
2023/09/19 06:16:47;;;;;;;3.27;1.40;;;;;;;20.51;64.09;97349.81;5027572;28;20915;-69
2023/09/19 06:19:12;;;;;;;2.17;1.20;;;;;;;20.45;63.69;97355.97;5014272;28;20220;-70
2023/09/19 06:21:38;;;;;;;2.40;1.30;;;;;;;20.42;63.72;97354.56;5037447;28;20986;-71
2023/09/19 06:24:04;;;;;;;2.07;1.20;;;;;;;20.38;63.76;97362.16;5031419;28;20212;-70
2023/09/19 06:26:30;;;;;;;1.17;1.00;;;;;;;20.29;63.63;97352.75;5021910;28;20461;-71
2023/09/19 06:28:56;;;;;;;1.57;1.10;;;;;;;20.29;63.62;97347.44;5035036;28;20602;-71
2023/09/19 06:31:22;;;;;;;4.10;1.20;;;;;;;20.30;63.58;97351.72;5033348;28;20460;-70
2023/09/19 06:33:48;;;;;;;2.67;1.30;;;;;;;20.27;63.35;97354.84;5028929;28;20216;-70
2023/09/19 06:36:15;;;;;;;2.47;1.30;;;;;;;20.24;63.29;97365.91;5029879;28;20473;-71
2023/09/19 06:38:40;;;;;;;4.07;1.60;;;;;;;20.29;63.14;97362.59;5027565;28;20778;-70
2023/09/19 06:41:08;;;;;;;1.30;1.17;;;;;;;20.32;63.39;97368.31;5039118;28;20521;-69
2023/09/19 06:43:34;;;;;;;1.80;1.43;;;;;;;20.39;63.04;97365.63;5045318;28;20207;-71
2023/09/19 06:46:00;;;;;;;6.00;1.53;;;;;;;20.44;62.92;97362.31;5045725;28;20473;-70
2023/09/19 06:48:26;;;;;;;6.50;1.50;;;;;;;20.49;62.84;97370.50;5035577;28;20188;-72
2023/09/19 06:50:58;;;;;;;3.53;1.30;;;;;;;20.49;62.54;97367.84;5044158;28;20437;-71
2023/09/19 06:53:24;;;;;;;4.60;1.73;;;;;;;20.53;62.76;97366.41;5020681;28;20446;-70
2023/09/19 06:55:53;;;;;;;4.93;1.73;;;;;;;20.63;62.98;97372.06;5033012;28;20536;-72
2023/09/19 06:58:20;;;;;;;1.90;1.20;;;;;;;20.69;62.39;97365.88;5035183;28;20200;-71
2023/09/19 07:00:45;;;;;;;1.50;1.40;;;;;;;20.82;62.00;97374.84;5034419;28;20470;-71
2023/09/19 07:03:13;;;;;;;3.23;2.00;;;;;;;20.96;62.45;97371.06;5048670;28;20514;-70
2023/09/19 07:05:40;;;;;;;4.60;1.40;;;;;;;21.05;61.60;97381.47;5016411;28;20187;-72
2023/09/19 07:08:10;;;;;;;5.57;1.97;;;;;;;21.14;61.63;97386.31;5023504;28;20427;-72
2023/09/19 07:10:36;;;;;;;2.03;1.33;;;;;;;21.26;60.99;97388.28;5035896;28;20826;-72
2023/09/19 07:13:03;;;;;;;3.77;1.70;;;;;;;21.35;61.21;97396.84;5024612;28;20462;-71
2023/09/19 07:15:38;;;;;;;4.60;1.50;;;;;;;21.41;60.70;97398.66;5051305;28;20286;-72
2023/09/19 07:18:05;;;;;;;4.13;1.93;;;;;;;21.48;60.42;97405.53;5028975;28;20421;-71
2023/09/19 07:20:32;;;;;;;3.43;1.97;;;;;;;21.53;59.86;97401.41;5042354;28;20426;-72
2023/09/19 07:23:01;;;;;;;1.40;1.30;;;;;;;21.53;58.83;97402.25;5041716;28;20463;-72
2023/09/19 07:25:26;;;;;;;5.07;1.40;;;;;;;21.49;58.87;97404.50;5033509;28;20478;-71
2023/09/19 07:27:52;;;;;;;3.63;1.50;;;;;;;21.51;58.35;97395.47;5022605;28;20476;-71
2023/09/19 07:30:17;;;;;;;4.27;1.70;;;;;;;21.50;58.20;97402.69;5014422;28;20450;-72
2023/09/19 07:32:43;;;;;;;4.23;1.50;;;;;;;21.54;58.74;97403.88;5047883;28;20718;-73
2023/09/19 07:35:08;;;;;;;2.47;1.60;;;;;;;21.63;58.63;97404.44;5032595;28;20203;-72
2023/09/19 07:37:34;;;;;;;3.83;1.60;;;;;;;21.73;58.91;97409.28;5030704;28;20240;-71
2023/09/19 07:40:06;;;;;;;3.27;1.10;;;;;;;21.73;58.79;97412.78;5032614;28;20225;-72
2023/09/19 07:42:35;;;;;;;1.47;1.27;;;;;;;21.84;58.81;97416.56;5029365;28;20263;-71
2023/09/19 07:45:01;;;;;;;1.70;1.50;;;;;;;21.93;57.55;97415.22;5037403;28;20445;-72
2023/09/19 07:47:27;;;;;;;1.53;1.37;;;;;;;22.02;56.90;97422.97;5034000;28;20518;-72
2023/09/19 07:49:53;;;;;;;2.53;1.57;;;;;;;22.11;56.79;97421.63;5023335;28;20426;-72
2023/09/19 07:52:19;;;;;;;4.37;1.40;;;;;;;22.14;55.89;97412.34;5033095;28;20520;-71
2023/09/19 07:54:44;;;;;;;5.33;1.63;;;;;;;22.19;56.15;97415.19;5035855;28;20211;-71
2023/09/19 07:57:11;;;;;;;3.03;1.70;;;;;;;22.24;56.50;97421.50;5026916;28;20438;-73
2023/09/19 07:59:38;;;;;;;4.90;1.57;;;;;;;22.36;56.50;97420.75;5034457;28;20678;-73
2023/09/19 08:02:04;;;;;;;9.70;1.63;;;;;;;22.50;56.46;97427.59;5038388;28;20445;-71
2023/09/19 08:04:33;;;;;;;3.27;1.47;;;;;;;22.65;56.87;97429.06;5043988;28;20879;-72
2023/09/19 08:06:59;;;;;;;4.80;1.27;;;;;;;22.80;56.39;97428.66;5044495;28;20426;-72
2023/09/19 08:09:24;;;;;;;2.70;1.50;;;;;;;22.98;56.25;97430.47;5033441;28;20429;-72
2023/09/19 08:11:50;;;;;;;2.90;1.33;;;;;;;23.17;55.57;97434.75;5032368;28;20681;-71
2023/09/19 08:14:16;;;;;;;4.40;1.60;;;;;;;23.29;55.80;97440.13;5039631;28;20224;-72
2023/09/19 08:16:42;;;;;;;2.47;1.50;;;;;;;23.52;54.79;97432.41;4986912;28;20951;-72
2023/09/19 08:19:10;;;;;;;2.83;1.20;;;;;;;23.72;54.59;97440.09;4976638;28;20408;-71
2023/09/19 08:21:36;;;;;;;4.10;1.40;;;;;;;23.78;53.17;97441.84;5037358;28;20521;-72
2023/09/19 08:24:05;;;;;;;3.73;1.33;;;;;;;23.88;53.48;97451.97;5044217;28;20449;-73
2023/09/19 08:26:31;;;;;;;6.67;1.00;;;;;;;24.06;52.48;97454.56;5027310;28;20426;-72
2023/09/19 08:28:57;;;;;;;1.27;1.17;;;;;;;24.12;50.85;97450.16;5009803;28;20468;-72
2023/09/19 08:31:23;;;;;;;1.50;1.13;;;;;;;23.95;49.04;97457.22;5029423;28;20498;-72
2023/09/19 08:33:50;;;;;;;1.60;1.10;;;;;;;23.68;49.41;97455.81;5003030;28;20562;-72
2023/09/19 08:36:15;;;;;;;8.00;1.37;;;;;;;23.82;49.97;97450.22;5040674;28;20426;-72
2023/09/19 08:38:40;;;;;;;5.53;1.40;;;;;;;23.76;49.75;97452.78;5015386;28;20456;-72
2023/09/19 08:41:07;;;;;;;5.57;1.30;;;;;;;23.73;50.63;97457.78;5043996;28;20198;-71
2023/09/19 08:43:34;;;;;;;4.90;1.20;;;;;;;23.51;50.67;97465.53;5019049;28;20582;-72
2023/09/19 08:46:05;;;;;;;3.17;1.30;;;;;;;23.54;50.54;97465.06;5039186;28;20509;-72
2023/09/19 08:48:31;;;;;;;5.60;1.40;;;;;;;23.49;49.83;97463.09;5018406;28;20430;-73
2023/09/19 08:51:26;;;;;;;6.30;1.97;;;;;;;23.25;49.76;97467.56;5026638;28;20483;-71
2023/09/19 08:54:06;;;;;;;4.30;1.50;;;;;;;23.32;49.40;97465.59;5022778;28;20895;-71
2023/09/19 08:56:36;;;;;;;9.27;1.03;;;;;;;23.33;49.62;97469.91;5031346;28;20430;-72
2023/09/19 08:59:07;;;;;;;1.67;1.40;;;;;;;23.58;49.37;97458.22;5032949;28;20504;-72
2023/09/19 09:01:33;;;;;;;1.70;1.53;;;;;;;23.68;49.33;97457.66;5017358;28;20422;-71
2023/09/19 09:03:58;;;;;;;4.17;1.27;;;;;;;23.89;48.19;97457.06;5009619;28;20983;-72
2023/09/19 09:06:25;;;;;;;3.17;1.47;;;;;;;23.97;48.16;97468.53;5013140;28;20634;-71
2023/09/19 09:08:52;;;;;;;1.60;1.30;;;;;;;23.99;47.87;97467.25;5014061;28;20191;-72
2023/09/19 09:11:17;;;;;;;5.00;1.53;;;;;;;23.98;47.55;97470.16;5015942;28;20458;-71
2023/09/19 09:13:44;;;;;;;5.63;1.17;;;;;;;24.10;47.13;97467.47;5046940;28;20500;-73
2023/09/19 09:16:10;;;;;;;12.20;1.63;;;;;;;24.27;47.41;97468.41;5022496;28;20833;-72
2023/09/19 09:18:36;;;;;;;2.00;1.30;;;;;;;24.51;46.24;97473.72;5037725;28;21122;-72
2023/09/19 09:21:01;;;;;;;3.10;1.30;;;;;;;24.69;45.35;97465.56;5032523;28;20439;-72
2023/09/19 09:23:31;;;;;;;2.50;1.40;;;;;;;24.90;45.56;97476.69;4994951;28;20687;-72
2023/09/19 09:26:00;;;;;;;4.53;1.40;;;;;;;24.96;44.93;97475.72;4965099;28;20282;-72
2023/09/19 09:28:28;;;;;;;2.70;1.30;;;;;;;24.96;44.90;97474.91;5030727;28;20434;-72
2023/09/19 09:30:54;;;;;;;2.23;1.40;;;;;;;24.93;43.80;97478.06;5023863;28;21093;-72
2023/09/19 09:33:21;;;;;;;3.33;1.50;;;;;;;25.05;45.13;97480.72;5041092;28;20454;-73
2023/09/19 09:35:52;;;;;;;5.80;1.77;;;;;;;25.02;43.90;97478.50;5030289;28;21045;-72
2023/09/19 09:38:21;;;;;;;2.23;1.20;;;;;;;24.69;41.92;97478.97;5026271;28;20975;-73
2023/09/19 09:41:06;;;;;;;3.20;1.27;;;;;;;24.67;42.66;97472.16;5042098;28;20425;-72
2023/09/19 09:43:38;;;;;;;3.53;1.30;;;;;;;25.03;41.55;97480.13;5038132;28;20993;-73
2023/09/19 09:51:40;;;;;;;4.23;1.40;;;;;;;25.17;41.29;97480.66;5049215;28;20461;-73
2023/09/19 09:54:15;;;;;;;5.27;1.27;;;;;;;25.04;41.20;97481.75;5039193;28;20874;-72
2023/09/19 09:57:14;;;;;;;2.37;1.23;;;;;;;24.86;41.05;97480.06;5053154;28;20432;-72
2023/09/19 09:59:53;;;;;;;2.90;1.27;;;;;;;24.69;41.25;97478.13;5043955;28;20517;-72
2023/09/19 10:02:32;;;;;;;5.43;1.47;;;;;;;24.67;42.09;97482.88;5045823;28;20435;-71
2023/09/19 10:05:13;;;;;;;4.43;1.57;;;;;;;24.88;41.87;97473.41;5029529;28;20481;-72
2023/09/19 10:07:40;;;;;;;3.10;1.40;;;;;;;24.84;41.20;97488.34;5026910;28;20448;-75
2023/09/19 10:10:16;;;;;;;2.20;1.50;;;;;;;24.85;40.58;97471.22;5020013;28;20426;-72
2023/09/19 10:12:44;;;;;;;2.73;1.20;;;;;;;24.99;39.78;97469.88;5029601;28;20480;-71
2023/09/19 10:15:11;;;;;;;3.10;1.50;;;;;;;25.28;40.37;97471.72;5027604;28;20507;-71
2023/09/19 10:17:40;;;;;;;3.77;1.70;;;;;;;25.30;39.58;97466.94;5038249;28;20431;-72
2023/09/19 10:20:17;;;;;;;2.30;1.30;;;;;;;25.42;39.28;97474.97;5023626;28;20430;-74
2023/09/19 10:22:43;;;;;;;2.90;1.20;;;;;;;25.84;39.60;97461.13;5021454;28;20954;-72
2023/09/19 10:25:09;;;;;;;2.47;1.40;;;;;;;26.19;39.44;97453.88;5028584;28;20446;-72
2023/09/19 10:27:37;;;;;;;5.33;2.30;;;;;;;26.59;39.33;97460.06;5015505;28;20442;-73
2023/09/19 10:30:07;;;;;;;2.40;1.90;;;;;;;26.79;37.26;97452.25;5014754;28;20575;-73
2023/09/19 10:32:33;;;;;;;2.70;1.40;;;;;;;26.87;35.53;97450.19;5036509;28;20474;-74
2023/09/19 10:35:00;;;;;;;9.07;2.07;;;;;;;26.96;36.20;97446.00;5014580;28;20446;-72
2023/09/19 10:37:27;;;;;;;5.87;1.60;;;;;;;27.34;36.02;97446.91;5044717;28;20759;-74
2023/09/19 10:39:53;;;;;;;5.20;2.10;;;;;;;27.47;35.98;97444.91;5040646;28;20438;-73
2023/09/19 10:42:20;;;;;;;1.60;1.50;;;;;;;27.70;36.28;97454.47;5037161;28;20427;-72
2023/09/19 10:44:47;;;;;;;2.33;1.50;;;;;;;27.70;34.81;97460.69;5022306;28;21105;-74
2023/09/19 10:47:14;;;;;;;1.80;1.30;;;;;;;27.71;33.59;97456.94;5014538;28;20853;-73
2023/09/19 10:49:46;;;;;;;4.03;1.20;;;;;;;28.10;33.83;97452.38;5044119;28;20437;-72
2023/09/19 10:52:15;;;;;;;1.87;1.00;;;;;;;28.48;34.05;97455.81;5032613;28;20463;-74
2023/09/19 10:54:47;;;;;;;2.00;1.30;;;;;;;28.83;33.38;97462.44;5006426;28;20456;-72
2023/09/19 10:57:16;;;;;;;7.00;1.60;;;;;;;29.01;32.93;97460.31;5023259;28;20485;-73
2023/09/19 11:00:22;;;;;;;3.63;1.60;;;;;;;29.00;32.90;97464.91;5040269;28;20437;-73
2023/09/19 11:03:19;;;;;;;2.93;1.30;;;;;;;28.86;31.71;97458.38;5038697;28;20426;-73
2023/09/19 11:06:00;;;;;;;1.93;1.10;;;;;;;28.54;31.83;97457.44;5017185;28;20422;-72
2023/09/19 11:08:26;;;;;;;1.20;1.07;;;;;;;28.35;32.34;97460.56;5037511;28;20434;-72
2023/09/19 11:10:52;;;;;;;1.87;1.00;;;;;;;28.13;33.05;97451.84;5021717;28;20458;-73
2023/09/19 11:13:25;;;;;;;1.60;1.20;;;;;;;28.22;32.57;97444.91;5049439;28;20554;-74
2023/09/19 11:16:04;;;;;;;1.60;0.97;;;;;;;28.40;32.80;97450.91;5036246;28;20279;-73
2023/09/19 11:18:42;;;;;;;3.93;2.33;;;;;;;28.60;32.75;97452.88;5038201;28;20517;-74
2023/09/19 11:21:32;;;;;;;3.30;2.03;;;;;;;28.39;32.90;97449.28;5030018;28;20426;-73
2023/09/19 11:24:17;;;;;;;3.03;1.60;;;;;;;28.41;33.33;97445.28;5047379;28;20451;-72
2023/09/19 11:26:51;;;;;;;2.63;1.20;;;;;;;28.15;34.06;97452.38;5012629;28;20441;-73
2023/09/19 11:29:31;;;;;;;2.03;1.00;;;;;;;27.78;32.83;97455.88;5038469;28;20948;-75
2023/09/19 11:31:59;;;;;;;7.27;1.20;;;;;;;27.54;33.01;97448.16;4998429;28;20469;-73
2023/09/19 11:34:37;;;;;;;2.00;1.20;;;;;;;27.24;33.75;97441.41;5030203;28;20473;-73
2023/09/19 11:37:11;;;;;;;1.50;1.00;;;;;;;27.00;33.95;97446.31;5043456;28;20424;-73
2023/09/19 11:39:38;;;;;;;1.70;1.00;;;;;;;26.83;33.97;97445.34;5035970;28;21054;-71
2023/09/19 11:42:43;;;;;;;3.10;1.23;;;;;;;26.67;33.84;97440.81;5043009;28;20930;-73
2023/09/19 11:45:34;;;;;;;2.70;1.20;;;;;;;26.88;34.25;97446.44;5021136;28;20805;-72
2023/09/19 11:48:01;;;;;;;1.20;1.10;;;;;;;27.10;34.08;97441.81;5007920;28;20513;-72
2023/09/19 11:50:27;;;;;;;6.17;1.27;;;;;;;27.19;33.79;97438.69;5040410;28;20431;-72
2023/09/19 11:52:55;;;;;;;3.53;1.20;;;;;;;27.50;33.45;97430.91;5015302;28;20473;-73